sensor_id;sensor_type;location;lat;lon;timestamp;P1;durP1;ratioP1;P2;durP2;ratioP2
11931;SDS011;6025;51.368;6.788;2022-07-29T00:03:53;2.10;;;1.30;;
11931;SDS011;6025;51.368;6.788;2022-07-29T00:08:45;4.03;;;1.70;;
11931;SDS011;6025;51.368;6.788;2022-07-29T00:13:38;6.82;;;1.70;;
11931;SDS011;6025;51.368;6.788;2022-07-29T00:18:30;5.72;;;1.60;;
11931;SDS011;6025;51.368;6.788;2022-07-29T00:23:21;5.25;;;1.80;;
11931;SDS011;6025;51.368;6.788;2022-07-29T00:28:13;5.55;;;1.60;;
11931;SDS011;6025;51.368;6.788;2022-07-29T00:33:06;3.40;;;1.52;;
11931;SDS011;6025;51.368;6.788;2022-07-29T00:37:57;6.75;;;1.45;;
11931;SDS011;6025;51.368;6.788;2022-07-29T00:42:49;5.15;;;1.52;;
11931;SDS011;6025;51.368;6.788;2022-07-29T00:47:42;3.90;;;1.60;;
11931;SDS011;6025;51.368;6.788;2022-07-29T00:52:37;4.53;;;1.60;;
11931;SDS011;6025;51.368;6.788;2022-07-29T00:57:29;4.78;;;1.50;;
11931;SDS011;6025;51.368;6.788;2022-07-29T01:02:21;3.42;;;1.58;;
11931;SDS011;6025;51.368;6.788;2022-07-29T01:07:12;4.82;;;1.70;;
11931;SDS011;6025;51.368;6.788;2022-07-29T01:12:06;4.63;;;1.80;;
11931;SDS011;6025;51.368;6.788;2022-07-29T01:17:00;6.00;;;1.85;;
11931;SDS011;6025;51.368;6.788;2022-07-29T01:21:57;8.07;;;1.90;;
11931;SDS011;6025;51.368;6.788;2022-07-29T01:26:49;3.53;;;2.15;;
11931;SDS011;6025;51.368;6.788;2022-07-29T01:31:47;12.20;;;1.90;;
11931;SDS011;6025;51.368;6.788;2022-07-29T01:36:43;7.88;;;2.03;;
11931;SDS011;6025;51.368;6.788;2022-07-29T01:41:36;5.22;;;1.88;;
11931;SDS011;6025;51.368;6.788;2022-07-29T01:46:30;7.13;;;1.95;;
11931;SDS011;6025;51.368;6.788;2022-07-29T01:51:25;10.70;;;1.90;;
11931;SDS011;6025;51.368;6.788;2022-07-29T01:56:19;3.25;;;1.67;;
11931;SDS011;6025;51.368;6.788;2022-07-29T02:01:11;5.22;;;1.70;;
11931;SDS011;6025;51.368;6.788;2022-07-29T02:06:04;5.65;;;1.70;;
11931;SDS011;6025;51.368;6.788;2022-07-29T02:10:59;3.38;;;1.90;;
11931;SDS011;6025;51.368;6.788;2022-07-29T02:15:51;6.82;;;1.63;;
11931;SDS011;6025;51.368;6.788;2022-07-29T02:20:44;6.55;;;1.77;;
11931;SDS011;6025;51.368;6.788;2022-07-29T02:25:38;4.25;;;1.50;;
11931;SDS011;6025;51.368;6.788;2022-07-29T02:30:33;2.60;;;1.63;;
11931;SDS011;6025;51.368;6.788;2022-07-29T02:35:26;4.53;;;1.50;;
11931;SDS011;6025;51.368;6.788;2022-07-29T02:40:18;4.15;;;1.60;;
11931;SDS011;6025;51.368;6.788;2022-07-29T02:45:10;6.95;;;1.75;;
11931;SDS011;6025;51.368;6.788;2022-07-29T02:50:04;5.55;;;1.80;;
11931;SDS011;6025;51.368;6.788;2022-07-29T02:55:00;6.45;;;1.80;;
11931;SDS011;6025;51.368;6.788;2022-07-29T02:59:53;4.13;;;1.50;;
11931;SDS011;6025;51.368;6.788;2022-07-29T03:04:49;7.97;;;1.70;;
11931;SDS011;6025;51.368;6.788;2022-07-29T03:09:42;6.70;;;2.10;;
11931;SDS011;6025;51.368;6.788;2022-07-29T03:14:34;7.72;;;1.50;;
11931;SDS011;6025;51.368;6.788;2022-07-29T03:19:26;4.43;;;1.52;;
11931;SDS011;6025;51.368;6.788;2022-07-29T03:24:29;5.00;;;1.50;;
11931;SDS011;6025;51.368;6.788;2022-07-29T03:29:23;5.00;;;1.52;;
11931;SDS011;6025;51.368;6.788;2022-07-29T03:34:15;6.45;;;1.45;;
11931;SDS011;6025;51.368;6.788;2022-07-29T03:39:07;11.75;;;2.08;;
11931;SDS011;6025;51.368;6.788;2022-07-29T03:44:00;4.57;;;1.80;;
11931;SDS011;6025;51.368;6.788;2022-07-29T03:48:55;3.35;;;1.50;;
11931;SDS011;6025;51.368;6.788;2022-07-29T03:53:49;4.88;;;1.75;;
11931;SDS011;6025;51.368;6.788;2022-07-29T03:58:41;9.02;;;1.67;;
11931;SDS011;6025;51.368;6.788;2022-07-29T04:03:33;3.97;;;1.48;;
11931;SDS011;6025;51.368;6.788;2022-07-29T04:08:27;3.38;;;1.52;;
11931;SDS011;6025;51.368;6.788;2022-07-29T04:13:18;3.17;;;1.23;;
11931;SDS011;6025;51.368;6.788;2022-07-29T04:18:10;5.47;;;1.88;;
11931;SDS011;6025;51.368;6.788;2022-07-29T04:23:02;2.60;;;1.50;;
11931;SDS011;6025;51.368;6.788;2022-07-29T04:27:55;4.35;;;1.60;;
11931;SDS011;6025;51.368;6.788;2022-07-29T04:32:53;3.78;;;1.75;;
11931;SDS011;6025;51.368;6.788;2022-07-29T04:37:44;5.80;;;2.17;;
11931;SDS011;6025;51.368;6.788;2022-07-29T04:42:36;6.25;;;2.47;;
11931;SDS011;6025;51.368;6.788;2022-07-29T04:47:29;9.18;;;3.50;;
11931;SDS011;6025;51.368;6.788;2022-07-29T04:52:21;7.13;;;3.00;;
11931;SDS011;6025;51.368;6.788;2022-07-29T04:57:12;6.32;;;2.83;;
11931;SDS011;6025;51.368;6.788;2022-07-29T05:02:04;5.65;;;3.08;;
11931;SDS011;6025;51.368;6.788;2022-07-29T05:06:57;8.05;;;3.17;;
11931;SDS011;6025;51.368;6.788;2022-07-29T05:11:49;6.65;;;3.10;;
11931;SDS011;6025;51.368;6.788;2022-07-29T05:16:41;5.65;;;3.15;;
11931;SDS011;6025;51.368;6.788;2022-07-29T05:21:33;7.25;;;2.95;;
11931;SDS011;6025;51.368;6.788;2022-07-29T05:26:26;4.82;;;3.30;;
11931;SDS011;6025;51.368;6.788;2022-07-29T05:31:18;7.00;;;3.20;;
11931;SDS011;6025;51.368;6.788;2022-07-29T05:36:10;8.43;;;2.60;;
11931;SDS011;6025;51.368;6.788;2022-07-29T05:41:01;4.30;;;2.40;;
11931;SDS011;6025;51.368;6.788;2022-07-29T05:45:54;5.28;;;2.50;;
11931;SDS011;6025;51.368;6.788;2022-07-29T05:50:46;6.63;;;2.97;;
11931;SDS011;6025;51.368;6.788;2022-07-29T05:55:38;4.93;;;2.70;;
11931;SDS011;6025;51.368;6.788;2022-07-29T06:00:29;5.80;;;2.50;;
11931;SDS011;6025;51.368;6.788;2022-07-29T06:05:23;6.43;;;3.08;;
11931;SDS011;6025;51.368;6.788;2022-07-29T06:10:14;5.28;;;2.67;;
11931;SDS011;6025;51.368;6.788;2022-07-29T06:15:06;5.85;;;2.67;;
11931;SDS011;6025;51.368;6.788;2022-07-29T06:19:59;5.30;;;2.88;;
11931;SDS011;6025;51.368;6.788;2022-07-29T06:24:52;8.45;;;2.83;;
11931;SDS011;6025;51.368;6.788;2022-07-29T06:29:43;8.10;;;2.72;;
11931;SDS011;6025;51.368;6.788;2022-07-29T06:34:35;6.97;;;3.05;;
11931;SDS011;6025;51.368;6.788;2022-07-29T06:39:26;7.80;;;3.05;;
11931;SDS011;6025;51.368;6.788;2022-07-29T06:44:20;6.82;;;3.28;;
11931;SDS011;6025;51.368;6.788;2022-07-29T06:49:11;4.13;;;2.97;;
11931;SDS011;6025;51.368;6.788;2022-07-29T06:54:03;6.10;;;3.33;;
11931;SDS011;6025;51.368;6.788;2022-07-29T06:58:55;6.60;;;3.50;;
11931;SDS011;6025;51.368;6.788;2022-07-29T07:03:48;9.05;;;3.83;;
11931;SDS011;6025;51.368;6.788;2022-07-29T07:08:40;6.13;;;3.70;;
11931;SDS011;6025;51.368;6.788;2022-07-29T07:13:31;5.45;;;3.10;;
11931;SDS011;6025;51.368;6.788;2022-07-29T07:18:24;6.53;;;3.17;;
11931;SDS011;6025;51.368;6.788;2022-07-29T07:28:10;6.72;;;3.25;;
11931;SDS011;6025;51.368;6.788;2022-07-29T07:33:02;7.85;;;3.53;;
11931;SDS011;6025;51.368;6.788;2022-07-29T07:37:54;7.35;;;3.35;;
11931;SDS011;6025;51.368;6.788;2022-07-29T07:42:46;6.72;;;3.33;;
11931;SDS011;6025;51.368;6.788;2022-07-29T07:47:39;6.43;;;3.55;;
11931;SDS011;6025;51.368;6.788;2022-07-29T07:52:31;6.50;;;3.92;;
11931;SDS011;6025;51.368;6.788;2022-07-29T07:57:23;8.85;;;3.92;;
11931;SDS011;6025;51.368;6.788;2022-07-29T08:02:15;6.53;;;3.75;;
11931;SDS011;6025;51.368;6.788;2022-07-29T08:07:08;4.97;;;3.45;;
11931;SDS011;6025;51.368;6.788;2022-07-29T08:12:00;10.05;;;4.10;;
11931;SDS011;6025;51.368;6.788;2022-07-29T08:16:53;5.35;;;3.30;;
11931;SDS011;6025;51.368;6.788;2022-07-29T08:21:45;9.30;;;4.05;;
11931;SDS011;6025;51.368;6.788;2022-07-29T08:26:38;7.97;;;3.72;;
11931;SDS011;6025;51.368;6.788;2022-07-29T08:31:29;8.38;;;3.72;;
11931;SDS011;6025;51.368;6.788;2022-07-29T08:36:21;7.88;;;3.70;;
11931;SDS011;6025;51.368;6.788;2022-07-29T08:41:12;7.07;;;3.42;;
11931;SDS011;6025;51.368;6.788;2022-07-29T08:46:05;7.72;;;3.35;;
11931;SDS011;6025;51.368;6.788;2022-07-29T08:50:57;8.32;;;4.03;;
11931;SDS011;6025;51.368;6.788;2022-07-29T08:55:50;5.30;;;3.70;;
11931;SDS011;6025;51.368;6.788;2022-07-29T09:00:42;7.43;;;3.78;;
11931;SDS011;6025;51.368;6.788;2022-07-29T09:05:37;6.18;;;3.95;;
11931;SDS011;6025;51.368;6.788;2022-07-29T09:10:34;9.60;;;3.97;;
11931;SDS011;6025;51.368;6.788;2022-07-29T09:15:26;9.48;;;4.57;;
11931;SDS011;6025;51.368;6.788;2022-07-29T09:20:18;8.45;;;4.10;;
11931;SDS011;6025;51.368;6.788;2022-07-29T09:25:12;8.85;;;4.35;;
11931;SDS011;6025;51.368;6.788;2022-07-29T09:30:05;11.05;;;4.30;;
11931;SDS011;6025;51.368;6.788;2022-07-29T09:40:13;8.05;;;4.43;;
11931;SDS011;6025;51.368;6.788;2022-07-29T09:45:06;11.93;;;4.38;;
11931;SDS011;6025;51.368;6.788;2022-07-29T09:49:58;10.82;;;4.72;;
11931;SDS011;6025;51.368;6.788;2022-07-29T09:54:50;9.45;;;4.93;;
11931;SDS011;6025;51.368;6.788;2022-07-29T09:59:46;9.45;;;4.78;;
11931;SDS011;6025;51.368;6.788;2022-07-29T10:04:47;9.45;;;4.50;;
11931;SDS011;6025;51.368;6.788;2022-07-29T10:09:38;12.15;;;4.50;;
11931;SDS011;6025;51.368;6.788;2022-07-29T10:14:30;9.05;;;4.50;;
11931;SDS011;6025;51.368;6.788;2022-07-29T10:19:24;9.88;;;4.10;;
11931;SDS011;6025;51.368;6.788;2022-07-29T10:24:16;7.97;;;3.90;;
11931;SDS011;6025;51.368;6.788;2022-07-29T10:29:07;9.60;;;3.92;;
11931;SDS011;6025;51.368;6.788;2022-07-29T10:34:01;9.30;;;3.50;;
11931;SDS011;6025;51.368;6.788;2022-07-29T10:39:00;8.60;;;3.88;;
11931;SDS011;6025;51.368;6.788;2022-07-29T10:43:58;8.95;;;4.43;;
11931;SDS011;6025;51.368;6.788;2022-07-29T10:49:04;9.50;;;3.85;;
11931;SDS011;6025;51.368;6.788;2022-07-29T10:54:00;10.60;;;3.58;;
11931;SDS011;6025;51.368;6.788;2022-07-29T11:04:16;6.38;;;3.03;;
11931;SDS011;6025;51.368;6.788;2022-07-29T11:09:19;7.10;;;3.13;;
11931;SDS011;6025;51.368;6.788;2022-07-29T11:14:11;6.47;;;2.92;;
11931;SDS011;6025;51.368;6.788;2022-07-29T11:19:21;6.10;;;2.90;;
11931;SDS011;6025;51.368;6.788;2022-07-29T11:24:12;7.60;;;2.47;;
11931;SDS011;6025;51.368;6.788;2022-07-29T11:29:08;5.30;;;2.45;;
11931;SDS011;6025;51.368;6.788;2022-07-29T11:34:17;4.93;;;2.30;;
11931;SDS011;6025;51.368;6.788;2022-07-29T11:39:26;5.05;;;2.50;;
11931;SDS011;6025;51.368;6.788;2022-07-29T11:44:19;4.43;;;2.22;;
11931;SDS011;6025;51.368;6.788;2022-07-29T11:49:46;9.00;;;4.95;;
11931;SDS011;6025;51.368;6.788;2022-07-29T11:54:38;7.78;;;2.75;;
11931;SDS011;6025;51.368;6.788;2022-07-29T11:59:39;7.55;;;3.05;;
11931;SDS011;6025;51.368;6.788;2022-07-29T12:04:31;9.10;;;3.05;;
11931;SDS011;6025;51.368;6.788;2022-07-29T12:09:23;8.98;;;3.17;;
11931;SDS011;6025;51.368;6.788;2022-07-29T12:14:24;9.93;;;3.20;;
11931;SDS011;6025;51.368;6.788;2022-07-29T12:19:18;6.88;;;3.05;;
11931;SDS011;6025;51.368;6.788;2022-07-29T12:24:09;10.95;;;3.63;;
11931;SDS011;6025;51.368;6.788;2022-07-29T12:29:01;11.85;;;3.72;;
11931;SDS011;6025;51.368;6.788;2022-07-29T12:33:53;8.43;;;3.67;;
11931;SDS011;6025;51.368;6.788;2022-07-29T12:38:46;9.77;;;3.38;;
11931;SDS011;6025;51.368;6.788;2022-07-29T12:43:38;8.10;;;3.80;;
11931;SDS011;6025;51.368;6.788;2022-07-29T12:48:43;9.43;;;3.90;;
11931;SDS011;6025;51.368;6.788;2022-07-29T12:53:35;7.85;;;3.78;;
11931;SDS011;6025;51.368;6.788;2022-07-29T12:58:29;10.13;;;3.33;;
11931;SDS011;6025;51.368;6.788;2022-07-29T13:03:25;6.45;;;3.13;;
11931;SDS011;6025;51.368;6.788;2022-07-29T13:08:17;8.48;;;2.97;;
11931;SDS011;6025;51.368;6.788;2022-07-29T13:13:13;7.20;;;2.80;;
11931;SDS011;6025;51.368;6.788;2022-07-29T13:23:19;5.00;;;2.78;;
11931;SDS011;6025;51.368;6.788;2022-07-29T13:28:11;8.65;;;3.08;;
11931;SDS011;6025;51.368;6.788;2022-07-29T13:33:02;7.95;;;2.70;;
11931;SDS011;6025;51.368;6.788;2022-07-29T13:37:55;8.43;;;2.97;;
11931;SDS011;6025;51.368;6.788;2022-07-29T13:42:47;5.22;;;2.63;;
11931;SDS011;6025;51.368;6.788;2022-07-29T13:47:39;7.20;;;2.80;;
11931;SDS011;6025;51.368;6.788;2022-07-29T13:52:30;7.95;;;2.85;;
11931;SDS011;6025;51.368;6.788;2022-07-29T13:57:23;5.50;;;2.67;;
11931;SDS011;6025;51.368;6.788;2022-07-29T14:02:15;7.90;;;2.92;;
11931;SDS011;6025;51.368;6.788;2022-07-29T14:07:06;6.75;;;2.97;;
11931;SDS011;6025;51.368;6.788;2022-07-29T14:11:58;7.65;;;3.10;;
11931;SDS011;6025;51.368;6.788;2022-07-29T14:16:51;5.78;;;2.55;;
11931;SDS011;6025;51.368;6.788;2022-07-29T14:21:43;6.63;;;2.58;;
11931;SDS011;6025;51.368;6.788;2022-07-29T14:26:34;8.95;;;2.90;;
11931;SDS011;6025;51.368;6.788;2022-07-29T14:31:26;7.03;;;2.67;;
11931;SDS011;6025;51.368;6.788;2022-07-29T14:36:20;7.85;;;3.10;;
11931;SDS011;6025;51.368;6.788;2022-07-29T14:41:12;5.55;;;3.20;;
11931;SDS011;6025;51.368;6.788;2022-07-29T14:46:03;7.20;;;3.42;;
11931;SDS011;6025;51.368;6.788;2022-07-29T14:50:55;12.95;;;3.75;;
11931;SDS011;6025;51.368;6.788;2022-07-29T14:55:48;10.02;;;3.42;;
11931;SDS011;6025;51.368;6.788;2022-07-29T15:00:40;6.47;;;3.05;;
11931;SDS011;6025;51.368;6.788;2022-07-29T15:05:32;8.05;;;2.90;;
11931;SDS011;6025;51.368;6.788;2022-07-29T15:10:25;7.10;;;2.85;;
11931;SDS011;6025;51.368;6.788;2022-07-29T15:15:18;7.10;;;3.65;;
11931;SDS011;6025;51.368;6.788;2022-07-29T15:20:10;7.53;;;2.63;;
11931;SDS011;6025;51.368;6.788;2022-07-29T15:25:03;9.13;;;3.90;;
11931;SDS011;6025;51.368;6.788;2022-07-29T15:29:55;4.93;;;2.33;;
11931;SDS011;6025;51.368;6.788;2022-07-29T15:34:48;9.70;;;3.15;;
11931;SDS011;6025;51.368;6.788;2022-07-29T15:39:39;7.40;;;3.40;;
11931;SDS011;6025;51.368;6.788;2022-07-29T15:44:31;5.20;;;2.30;;
11931;SDS011;6025;51.368;6.788;2022-07-29T15:49:23;10.95;;;2.60;;
11931;SDS011;6025;51.368;6.788;2022-07-29T15:54:21;8.25;;;2.88;;
11931;SDS011;6025;51.368;6.788;2022-07-29T15:59:13;5.80;;;2.80;;
11931;SDS011;6025;51.368;6.788;2022-07-29T16:04:05;6.53;;;2.28;;
11931;SDS011;6025;51.368;6.788;2022-07-29T16:08:56;11.80;;;2.72;;
11931;SDS011;6025;51.368;6.788;2022-07-29T16:13:50;5.93;;;2.40;;
11931;SDS011;6025;51.368;6.788;2022-07-29T16:18:42;8.38;;;2.67;;
11931;SDS011;6025;51.368;6.788;2022-07-29T16:23:34;8.15;;;2.72;;
11931;SDS011;6025;51.368;6.788;2022-07-29T16:28:25;6.05;;;2.72;;
11931;SDS011;6025;51.368;6.788;2022-07-29T16:33:18;3.90;;;2.60;;
11931;SDS011;6025;51.368;6.788;2022-07-29T16:38:10;5.95;;;2.28;;
11931;SDS011;6025;51.368;6.788;2022-07-29T16:43:02;4.15;;;2.50;;
11931;SDS011;6025;51.368;6.788;2022-07-29T16:47:53;6.32;;;2.72;;
11931;SDS011;6025;51.368;6.788;2022-07-29T16:52:47;7.28;;;3.13;;
11931;SDS011;6025;51.368;6.788;2022-07-29T16:57:39;4.00;;;2.70;;
11931;SDS011;6025;51.368;6.788;2022-07-29T17:02:31;6.80;;;2.78;;
11931;SDS011;6025;51.368;6.788;2022-07-29T17:07:23;7.15;;;3.20;;
11931;SDS011;6025;51.368;6.788;2022-07-29T17:12:16;6.65;;;2.70;;
11931;SDS011;6025;51.368;6.788;2022-07-29T17:17:07;7.30;;;3.15;;
11931;SDS011;6025;51.368;6.788;2022-07-29T17:21:59;4.55;;;2.65;;
11931;SDS011;6025;51.368;6.788;2022-07-29T17:26:52;6.57;;;2.70;;
11931;SDS011;6025;51.368;6.788;2022-07-29T17:31:45;8.52;;;2.22;;
11931;SDS011;6025;51.368;6.788;2022-07-29T17:36:36;6.70;;;3.28;;
11931;SDS011;6025;51.368;6.788;2022-07-29T17:41:28;6.05;;;3.08;;
11931;SDS011;6025;51.368;6.788;2022-07-29T17:46:20;4.97;;;2.67;;
11931;SDS011;6025;51.368;6.788;2022-07-29T17:51:15;5.40;;;2.50;;
11931;SDS011;6025;51.368;6.788;2022-07-29T17:56:06;5.45;;;2.55;;
11931;SDS011;6025;51.368;6.788;2022-07-29T18:00:58;7.10;;;2.92;;
11931;SDS011;6025;51.368;6.788;2022-07-29T18:05:49;4.43;;;2.58;;
11931;SDS011;6025;51.368;6.788;2022-07-29T18:10:43;9.25;;;2.95;;
11931;SDS011;6025;51.368;6.788;2022-07-29T18:15:35;4.82;;;2.40;;
11931;SDS011;6025;51.368;6.788;2022-07-29T18:20:26;6.85;;;2.42;;
11931;SDS011;6025;51.368;6.788;2022-07-29T18:25:18;5.90;;;2.40;;
11931;SDS011;6025;51.368;6.788;2022-07-29T18:30:11;3.70;;;2.60;;
11931;SDS011;6025;51.368;6.788;2022-07-29T18:35:04;5.07;;;2.50;;
11931;SDS011;6025;51.368;6.788;2022-07-29T18:39:56;6.65;;;2.50;;
11931;SDS011;6025;51.368;6.788;2022-07-29T18:44:48;4.53;;;2.15;;
11931;SDS011;6025;51.368;6.788;2022-07-29T18:49:41;3.60;;;2.08;;
11931;SDS011;6025;51.368;6.788;2022-07-29T18:54:32;5.30;;;2.20;;
11931;SDS011;6025;51.368;6.788;2022-07-29T18:59:24;5.70;;;2.33;;
11931;SDS011;6025;51.368;6.788;2022-07-29T19:04:15;8.18;;;2.92;;
11931;SDS011;6025;51.368;6.788;2022-07-29T19:09:09;5.88;;;2.60;;
11931;SDS011;6025;51.368;6.788;2022-07-29T19:14:01;5.30;;;2.28;;
11931;SDS011;6025;51.368;6.788;2022-07-29T19:18:52;4.85;;;2.30;;
11931;SDS011;6025;51.368;6.788;2022-07-29T19:23:44;5.00;;;2.15;;
11931;SDS011;6025;51.368;6.788;2022-07-29T19:28:38;4.75;;;2.45;;
11931;SDS011;6025;51.368;6.788;2022-07-29T19:33:29;8.75;;;2.40;;
11931;SDS011;6025;51.368;6.788;2022-07-29T19:38:21;4.65;;;2.50;;
11931;SDS011;6025;51.368;6.788;2022-07-29T19:43:13;5.70;;;2.63;;
11931;SDS011;6025;51.368;6.788;2022-07-29T19:48:06;4.07;;;2.67;;
11931;SDS011;6025;51.368;6.788;2022-07-29T19:52:58;5.32;;;2.40;;
11931;SDS011;6025;51.368;6.788;2022-07-29T19:57:50;5.13;;;2.30;;
11931;SDS011;6025;51.368;6.788;2022-07-29T20:02:42;6.63;;;2.45;;
11931;SDS011;6025;51.368;6.788;2022-07-29T20:07:36;5.22;;;2.58;;
11931;SDS011;6025;51.368;6.788;2022-07-29T20:12:27;4.55;;;2.58;;
11931;SDS011;6025;51.368;6.788;2022-07-29T20:17:19;6.18;;;2.67;;
11931;SDS011;6025;51.368;6.788;2022-07-29T20:22:12;5.00;;;2.60;;
11931;SDS011;6025;51.368;6.788;2022-07-29T20:27:05;7.05;;;2.50;;
11931;SDS011;6025;51.368;6.788;2022-07-29T20:31:57;6.55;;;3.17;;
11931;SDS011;6025;51.368;6.788;2022-07-29T20:36:49;5.88;;;2.92;;
11931;SDS011;6025;51.368;6.788;2022-07-29T20:41:41;5.82;;;2.70;;
11931;SDS011;6025;51.368;6.788;2022-07-29T20:46:34;5.55;;;2.58;;
11931;SDS011;6025;51.368;6.788;2022-07-29T20:51:28;5.90;;;3.00;;
11931;SDS011;6025;51.368;6.788;2022-07-29T20:56:19;6.70;;;3.42;;
11931;SDS011;6025;51.368;6.788;2022-07-29T21:01:11;5.88;;;3.20;;
11931;SDS011;6025;51.368;6.788;2022-07-29T21:06:04;5.70;;;2.80;;
11931;SDS011;6025;51.368;6.788;2022-07-29T21:10:56;3.70;;;2.92;;
11931;SDS011;6025;51.368;6.788;2022-07-29T21:15:48;7.55;;;2.88;;
11931;SDS011;6025;51.368;6.788;2022-07-29T21:20:40;6.00;;;2.97;;
11931;SDS011;6025;51.368;6.788;2022-07-29T21:25:33;7.32;;;3.35;;
11931;SDS011;6025;51.368;6.788;2022-07-29T21:30:25;4.25;;;2.92;;
11931;SDS011;6025;51.368;6.788;2022-07-29T21:35:16;4.60;;;3.35;;
11931;SDS011;6025;51.368;6.788;2022-07-29T21:40:08;5.68;;;3.30;;
11931;SDS011;6025;51.368;6.788;2022-07-29T21:45:02;5.88;;;3.38;;
11931;SDS011;6025;51.368;6.788;2022-07-29T21:49:54;5.95;;;3.30;;
11931;SDS011;6025;51.368;6.788;2022-07-29T21:54:46;5.75;;;3.05;;
11931;SDS011;6025;51.368;6.788;2022-07-29T21:59:37;4.70;;;3.08;;
11931;SDS011;6025;51.368;6.788;2022-07-29T22:04:30;6.97;;;3.05;;
11931;SDS011;6025;51.368;6.788;2022-07-29T22:09:23;4.68;;;3.10;;
11931;SDS011;6025;51.368;6.788;2022-07-29T22:14:14;6.03;;;3.22;;
11931;SDS011;6025;51.368;6.788;2022-07-29T22:19:07;6.22;;;3.25;;
11931;SDS011;6025;51.368;6.788;2022-07-29T22:24:00;5.55;;;3.20;;
11931;SDS011;6025;51.368;6.788;2022-07-29T22:28:52;4.93;;;3.28;;
11931;SDS011;6025;51.368;6.788;2022-07-29T22:33:43;6.70;;;3.28;;
11931;SDS011;6025;51.368;6.788;2022-07-29T22:38:35;7.05;;;3.00;;
11931;SDS011;6025;51.368;6.788;2022-07-29T22:43:28;7.57;;;3.30;;
11931;SDS011;6025;51.368;6.788;2022-07-29T22:48:19;4.80;;;2.80;;
11931;SDS011;6025;51.368;6.788;2022-07-29T22:53:11;7.90;;;3.00;;
11931;SDS011;6025;51.368;6.788;2022-07-29T22:58:03;3.78;;;3.00;;
11931;SDS011;6025;51.368;6.788;2022-07-29T23:02:56;5.93;;;3.25;;
11931;SDS011;6025;51.368;6.788;2022-07-29T23:07:47;7.25;;;2.80;;
11931;SDS011;6025;51.368;6.788;2022-07-29T23:12:39;6.50;;;2.80;;
11931;SDS011;6025;51.368;6.788;2022-07-29T23:17:30;6.15;;;3.30;;
11931;SDS011;6025;51.368;6.788;2022-07-29T23:22:23;5.95;;;3.35;;
11931;SDS011;6025;51.368;6.788;2022-07-29T23:27:15;7.63;;;3.55;;
11931;SDS011;6025;51.368;6.788;2022-07-29T23:32:07;4.47;;;3.40;;
11931;SDS011;6025;51.368;6.788;2022-07-29T23:36:58;8.60;;;3.55;;
11931;SDS011;6025;51.368;6.788;2022-07-29T23:41:51;5.28;;;3.50;;
11931;SDS011;6025;51.368;6.788;2022-07-29T23:46:43;6.95;;;3.80;;
11931;SDS011;6025;51.368;6.788;2022-07-29T23:51:34;4.60;;;2.95;;
11931;SDS011;6025;51.368;6.788;2022-07-29T23:56:26;8.15;;;3.60;;
